Time;durP1;ratioP1;P1;durP2;ratioP2;P2;SDS_P1;SDS_P2;PMS_P1;PMS_P2;Temp;Humidity;BMP_temperature;BMP_pressure;BME280_temperature;BME280_humidity;BME280_pressure;Samples;Min_cycle;Max_cycle;Signal;HPM_P1;HPM_P2
2022/12/12 00:01:59;;;;;;;23.95;14.40;;;0.60;99.90;;;;;;5124782;27;20043;-36
2022/12/12 00:04:24;;;;;;;26.17;14.05;;;0.60;99.90;;;;;;5141478;27;20083;-36
2022/12/12 00:06:50;;;;;;;27.40;14.48;;;0.60;99.90;;;;;;5109087;28;20036;-36
2022/12/12 00:09:16;;;;;;;25.80;14.43;;;0.60;99.90;;;;;;5069150;28;20651;-36
2022/12/12 00:11:42;;;;;;;24.33;13.95;;;0.60;99.90;;;;;;5036006;28;20080;-38
2022/12/12 00:14:07;;;;;;;24.38;14.00;;;0.60;99.90;;;;;;5002297;28;20082;-37
2022/12/12 00:16:33;;;;;;;27.27;14.52;;;0.60;99.90;;;;;;4937182;28;20452;-36
2022/12/12 00:18:59;;;;;;;27.40;15.13;;;0.50;99.90;;;;;;4925842;28;20044;-36
2022/12/12 00:21:37;;;;;;;29.95;15.25;;;0.60;99.90;;;;;;5193796;27;20144;-36
2022/12/12 00:24:03;;;;;;;33.30;18.00;;;0.50;99.90;;;;;;5152520;27;20055;-36
2022/12/12 00:26:32;;;;;;;25.08;13.52;;;0.50;99.90;;;;;;5136147;27;20062;-35
2022/12/12 00:28:58;;;;;;;25.40;13.70;;;0.60;99.90;;;;;;5113343;27;20044;-35
2022/12/12 00:31:24;;;;;;;24.70;13.82;;;0.50;99.90;;;;;;5056168;28;20558;-36
2022/12/12 00:33:50;;;;;;;25.63;14.20;;;0.50;99.90;;;;;;5022814;28;20045;-36
2022/12/12 00:36:19;;;;;;;26.70;15.73;;;0.50;99.90;;;;;;5015253;28;20120;-36
2022/12/12 00:38:45;;;;;;;30.40;16.40;;;0.60;99.90;;;;;;4991374;28;20055;-35
2022/12/12 00:41:11;;;;;;;25.75;14.88;;;0.50;99.90;;;;;;4906659;29;20056;-38
2022/12/12 00:43:48;;;;;;;27.45;14.57;;;0.50;99.90;;;;;;5194484;27;20132;-36
2022/12/12 00:46:16;;;;;;;22.67;13.13;;;0.50;99.90;;;;;;5148818;27;20050;-33
2022/12/12 00:48:42;;;;;;;23.63;13.93;;;0.60;99.90;;;;;;5119782;27;20047;-37
2022/12/12 00:51:12;;;;;;;23.73;13.63;;;0.60;99.90;;;;;;5134872;27;20051;-36
2022/12/12 00:53:38;;;;;;;24.30;14.40;;;0.50;99.90;;;;;;5123896;27;20041;-35
2022/12/12 00:56:05;;;;;;;25.63;14.07;;;0.50;99.90;;;;;;5074583;28;20041;-35
2022/12/12 00:58:31;;;;;;;24.55;13.55;;;0.50;99.90;;;;;;5030821;28;20045;-36
2022/12/12 01:01:05;;;;;;;21.02;12.15;;;0.50;99.90;;;;;;5022781;28;20116;-35
2022/12/12 01:03:36;;;;;;;25.58;13.40;;;0.50;99.90;;;;;;5005271;28;20484;-35
2022/12/12 01:06:02;;;;;;;20.55;11.50;;;0.50;99.90;;;;;;4898916;29;20044;-35
2022/12/12 01:08:40;;;;;;;19.95;11.30;;;0.50;99.90;;;;;;5191562;27;20125;-36
2022/12/12 01:11:07;;;;;;;21.52;11.20;;;0.50;99.90;;;;;;5132594;27;20397;-36
2022/12/12 01:13:33;;;;;;;22.95;12.13;;;0.50;99.90;;;;;;5131055;27;20437;-35
2022/12/12 01:15:59;;;;;;;22.63;12.98;;;0.50;99.90;;;;;;5141860;27;20446;-36
2022/12/12 01:18:24;;;;;;;20.20;11.55;;;0.50;99.90;;;;;;5066727;28;20033;-35
2022/12/12 01:20:50;;;;;;;23.60;12.52;;;0.50;99.90;;;;;;5048035;28;20048;-34
2022/12/12 01:23:16;;;;;;;19.92;12.00;;;0.50;99.90;;;;;;5045523;28;20047;-37
2022/12/12 01:25:42;;;;;;;21.17;11.70;;;0.50;99.90;;;;;;5034137;28;20105;-36
2022/12/12 01:28:08;;;;;;;22.83;12.65;;;0.50;99.90;;;;;;4978324;28;20513;-36
2022/12/12 01:30:34;;;;;;;21.95;12.45;;;0.50;99.90;;;;;;4924119;28;20055;-37
2022/12/12 01:33:12;;;;;;;22.70;12.75;;;0.50;99.90;;;;;;5195759;27;20140;-36
2022/12/12 01:35:38;;;;;;;21.88;12.15;;;0.50;99.90;;;;;;5167274;27;20487;-36
2022/12/12 01:38:03;;;;;;;20.30;12.05;;;0.50;99.90;;;;;;5155727;27;20123;-36
2022/12/12 01:40:30;;;;;;;23.23;11.98;;;0.50;99.90;;;;;;5104152;27;20473;-35
2022/12/12 01:42:56;;;;;;;22.17;13.07;;;0.50;99.90;;;;;;5109681;27;20043;-36
2022/12/12 01:46:00;;;;;;;21.95;12.35;;;0.50;99.90;;;;;;5090108;28;20501;-35
2022/12/12 01:48:42;;;;;;;21.80;12.93;;;0.50;99.90;;;;;;5078614;28;20040;-36
2022/12/12 01:51:18;;;;;;;22.05;12.18;;;0.50;99.90;;;;;;5028233;28;20472;-36
2022/12/12 01:53:46;;;;;;;21.60;12.27;;;0.50;99.90;;;;;;4936421;28;20035;-36
2022/12/12 01:56:24;;;;;;;19.58;12.23;;;0.50;99.90;;;;;;5199268;27;20140;-35
2022/12/12 01:58:52;;;;;;;21.98;11.93;;;0.50;99.90;;;;;;5166534;27;20057;-35
2022/12/12 02:01:19;;;;;;;22.33;13.20;;;0.40;99.90;;;;;;5154968;27;20094;-37
2022/12/12 02:03:47;;;;;;;24.90;13.10;;;0.50;99.90;;;;;;5139930;27;20074;-36
2022/12/12 02:06:19;;;;;;;23.80;13.32;;;0.40;99.90;;;;;;5097975;28;20132;-36
2022/12/12 02:08:46;;;;;;;22.15;13.32;;;0.40;99.90;;;;;;5041975;28;20446;-36
2022/12/12 02:11:12;;;;;;;23.80;13.40;;;0.40;99.90;;;;;;5041185;28;20517;-36
2022/12/12 02:13:38;;;;;;;21.00;11.82;;;0.40;99.90;;;;;;4968607;28;20040;-36
2022/12/12 02:16:10;;;;;;;22.65;13.00;;;0.50;99.90;;;;;;4935357;28;20123;-36
2022/12/12 02:18:41;;;;;;;22.58;12.25;;;0.50;99.90;;;;;;4869470;29;20034;-36
2022/12/12 02:21:32;;;;;;;23.35;13.15;;;0.50;99.90;;;;;;5201580;27;20470;-36
2022/12/12 02:24:17;;;;;;;26.55;12.98;;;0.40;99.90;;;;;;5128260;27;20062;-35
2022/12/12 02:27:14;;;;;;;25.25;12.50;;;0.40;99.90;;;;;;5098161;28;20590;-36
2022/12/12 02:29:49;;;;;;;21.73;11.68;;;0.40;99.90;;;;;;5100954;28;20040;-37
2022/12/12 02:32:33;;;;;;;23.65;12.40;;;0.40;99.90;;;;;;5026766;28;20046;-36
2022/12/12 02:35:04;;;;;;;23.08;13.35;;;0.40;99.90;;;;;;5015413;28;20083;-36
2022/12/12 02:37:59;;;;;;;22.83;12.50;;;0.40;99.90;;;;;;4972386;28;20389;-35
2022/12/12 02:40:55;;;;;;;23.48;12.40;;;0.40;99.90;;;;;;4813432;29;20059;-37
2022/12/12 02:43:40;;;;;;;24.20;13.05;;;0.40;99.90;;;;;;4680830;30;20077;-36
2022/12/12 02:46:27;;;;;;;21.17;12.82;;;0.40;99.90;;;;;;5199215;27;19919;-36
2022/12/12 02:49:07;;;;;;;22.98;13.55;;;0.40;99.90;;;;;;5147459;27;20046;-37
2022/12/12 02:51:35;;;;;;;21.70;13.10;;;0.40;99.90;;;;;;5095195;28;20067;-36
2022/12/12 02:54:04;;;;;;;23.73;13.20;;;0.40;99.90;;;;;;5059972;28;20568;-36
2022/12/12 02:56:44;;;;;;;22.15;13.38;;;0.40;99.90;;;;;;5021990;28;20043;-35
2022/12/12 02:59:24;;;;;;;23.42;13.02;;;0.40;99.90;;;;;;4934480;28;20161;-36
2022/12/12 03:02:14;;;;;;;23.15;13.15;;;0.40;99.90;;;;;;4922321;29;20195;-36
2022/12/12 03:10:41;;;;;;;20.40;11.65;;;0.40;99.90;;;;;;5182672;27;20153;-35
2022/12/12 03:13:40;;;;;;;23.73;12.77;;;0.40;99.90;;;;;;5145332;27;20042;-36
2022/12/12 03:16:30;;;;;;;23.55;12.68;;;0.40;99.90;;;;;;5082562;28;20048;-36
2022/12/12 03:19:08;;;;;;;21.95;12.63;;;0.40;99.90;;;;;;5102548;28;20049;-35
2022/12/12 03:21:41;;;;;;;24.52;12.70;;;0.40;99.90;;;;;;5073675;28;21020;-37
2022/12/12 03:24:18;;;;;;;23.03;13.23;;;0.40;99.90;;;;;;5017214;28;20072;-36
2022/12/12 03:26:50;;;;;;;21.42;11.65;;;0.40;99.90;;;;;;4924250;29;20554;-35
2022/12/12 03:29:23;;;;;;;20.65;12.50;;;0.40;99.90;;;;;;4844115;29;20047;-35
2022/12/12 03:31:54;;;;;;;20.42;11.93;;;0.40;99.90;;;;;;4735651;30;20549;-37
2022/12/12 03:37:23;;;;;;;20.58;13.38;;;0.50;99.90;;;;;;5200048;27;20128;-37
2022/12/12 03:39:57;;;;;;;21.35;12.48;;;0.40;99.90;;;;;;5120842;28;20040;-36
2022/12/12 03:42:22;;;;;;;;;;;0.50;99.90;;;;;;5107772;27;20043;-35
2022/12/12 03:44:54;;;;;;;21.73;11.88;;;0.40;99.90;;;;;;5107788;27;19924;-34
2022/12/12 03:47:27;;;;;;;21.65;12.23;;;0.40;99.90;;;;;;5072350;28;20049;-36
2022/12/12 03:49:59;;;;;;;21.45;12.55;;;0.40;99.90;;;;;;5036314;28;20041;-35
2022/12/12 03:52:36;;;;;;;21.88;12.43;;;0.40;99.90;;;;;;5010196;28;20077;-36
2022/12/12 03:55:22;;;;;;;20.98;12.63;;;0.50;99.90;;;;;;4916888;29;20044;-37
2022/12/12 03:57:56;;;;;;;24.35;13.63;;;0.50;99.90;;;;;;4818958;29;20045;-37
2022/12/12 04:00:36;;;;;;;26.33;16.75;;;0.40;99.90;;;;;;5191574;27;20379;-36
2022/12/12 04:03:18;;;;;;;21.65;14.00;;;0.50;99.90;;;;;;5120716;28;20140;-37
2022/12/12 04:08:34;;;;;;;22.25;13.18;;;0.50;99.90;;;;;;5013850;28;20412;-36
2022/12/12 04:14:40;;;;;;;20.88;12.10;;;0.50;99.90;;;;;;4876111;29;20088;-37
2022/12/12 04:17:12;;;;;;;19.88;11.82;;;0.50;99.90;;;;;;4820695;29;20051;-36
2022/12/12 04:29:06;;;;;;;22.13;13.48;;;0.50;99.90;;;;;;5150019;27;20130;-35
2022/12/12 04:31:37;;;;;;;22.08;13.65;;;0.50;99.90;;;;;;5136762;27;20477;-36
2022/12/12 04:34:13;;;;;;;22.88;13.00;;;0.40;99.90;;;;;;5106844;28;20116;-36
2022/12/12 04:36:42;;;;;;;22.73;13.10;;;0.40;99.90;;;;;;5043014;28;20042;-36
2022/12/12 04:39:09;;;;;;;19.98;12.30;;;0.40;99.90;;;;;;4918281;29;20051;-36
2022/12/12 04:41:37;;;;;;;23.48;12.50;;;0.40;99.90;;;;;;4908112;29;20380;-37
2022/12/12 04:44:08;;;;;;;23.17;13.30;;;0.40;99.90;;;;;;4880838;29;20464;-36
2022/12/12 04:46:49;;;;;;;22.60;13.73;;;0.40;99.90;;;;;;4807930;29;20128;-35
2022/12/12 04:51:58;;;;;;;23.10;12.60;;;0.40;99.90;;;;;;5198280;27;20128;-36
2022/12/12 04:54:36;;;;;;;21.92;13.25;;;0.40;99.90;;;;;;5127350;27;20040;-36
2022/12/12 04:57:06;;;;;;;24.15;13.13;;;0.40;99.90;;;;;;5086979;28;20044;-35
2022/12/12 04:59:32;;;;;;;23.20;13.70;;;0.40;99.90;;;;;;5081086;28;20056;-35
2022/12/12 05:02:16;;;;;;;22.73;13.30;;;0.40;99.90;;;;;;5034366;28;20130;-35
2022/12/12 05:05:04;;;;;;;22.60;13.57;;;0.40;99.90;;;;;;4966759;28;20132;-35
2022/12/12 05:07:39;;;;;;;24.25;13.07;;;0.40;99.90;;;;;;4966373;28;20134;-37
2022/12/12 05:10:12;;;;;;;22.17;12.80;;;0.40;99.90;;;;;;4918279;29;20047;-36
2022/12/12 05:12:55;;;;;;;21.35;12.93;;;0.40;99.90;;;;;;4817708;29;20397;-36
2022/12/12 05:15:32;;;;;;;20.80;12.57;;;0.40;99.90;;;;;;5204668;27;20132;-35
2022/12/12 05:17:58;;;;;;;20.85;12.50;;;0.30;99.90;;;;;;5142654;27;20042;-35
2022/12/12 05:20:24;;;;;;;20.20;12.15;;;0.30;99.90;;;;;;5094545;28;20036;-36
2022/12/12 05:22:50;;;;;;;22.73;13.38;;;0.30;99.90;;;;;;5091812;28;20492;-35
2022/12/12 05:25:16;;;;;;;21.15;11.73;;;0.30;99.90;;;;;;5077292;28;20046;-36
2022/12/12 05:27:42;;;;;;;21.23;12.80;;;0.30;99.90;;;;;;5021098;28;20053;-36
2022/12/12 05:30:08;;;;;;;23.83;13.90;;;0.30;99.90;;;;;;4956678;28;20050;-38
2022/12/12 05:32:34;;;;;;;25.92;13.57;;;0.30;99.90;;;;;;4934411;29;20070;-35
2022/12/12 05:35:00;;;;;;;20.98;13.13;;;0.30;99.90;;;;;;4893822;29;20045;-35
2022/12/12 05:40:13;;;;;;;23.45;12.57;;;0.30;99.90;;;;;;5169518;27;20142;-36
2022/12/12 05:42:40;;;;;;;21.55;12.20;;;0.30;99.90;;;;;;5149553;27;20039;-35
2022/12/12 05:45:07;;;;;;;23.20;13.32;;;0.30;99.90;;;;;;5151085;27;20043;-36
2022/12/12 05:47:33;;;;;;;22.17;13.10;;;0.30;99.90;;;;;;5126032;27;20529;-37
2022/12/12 05:49:59;;;;;;;22.85;12.73;;;0.30;99.90;;;;;;5116653;27;20040;-36
2022/12/12 05:52:26;;;;;;;23.48;13.18;;;0.30;99.90;;;;;;5038068;28;20042;-36
2022/12/12 05:54:52;;;;;;;24.73;13.98;;;0.30;99.90;;;;;;5025105;28;20043;-36
2022/12/12 05:57:18;;;;;;;22.55;13.75;;;0.30;99.90;;;;;;5025932;28;20041;-35
2022/12/12 05:59:54;;;;;;;22.27;13.13;;;0.30;99.90;;;;;;4992306;28;20068;-36
2022/12/12 06:04:52;;;;;;;24.08;13.88;;;0.30;99.90;;;;;;5201420;27;20133;-36
2022/12/12 06:07:17;;;;;;;22.88;12.60;;;0.30;99.90;;;;;;5167547;27;20046;-36
2022/12/12 06:09:43;;;;;;;21.70;12.68;;;0.30;99.90;;;;;;5123902;27;20550;-35
2022/12/12 06:12:09;;;;;;;21.40;13.23;;;0.30;99.90;;;;;;5109929;28;20036;-37
2022/12/12 06:14:35;;;;;;;23.38;13.02;;;0.30;99.90;;;;;;5080334;28;20037;-37
2022/12/12 06:17:03;;;;;;;21.33;13.25;;;0.30;99.90;;;;;;5012477;28;20122;-35
2022/12/12 06:19:34;;;;;;;24.67;13.02;;;0.30;99.90;;;;;;4997154;28;20129;-35
2022/12/12 06:22:00;;;;;;;22.30;13.57;;;0.30;99.90;;;;;;4985130;28;20134;-35
2022/12/12 06:24:35;;;;;;;24.10;12.82;;;0.30;99.90;;;;;;4905148;28;20051;-36
2022/12/12 06:27:13;;;;;;;24.45;13.23;;;0.30;99.90;;;;;;5196652;27;20485;-35
2022/12/12 06:29:39;;;;;;;23.15;13.23;;;0.30;99.90;;;;;;5173183;27;20043;-36
2022/12/12 06:32:05;;;;;;;25.42;13.50;;;0.30;99.90;;;;;;5155678;27;20053;-35
2022/12/12 06:34:31;;;;;;;25.88;13.70;;;0.30;99.90;;;;;;5145903;27;20039;-35
2022/12/12 06:36:57;;;;;;;23.02;13.73;;;0.30;99.90;;;;;;5057812;28;20045;-35
2022/12/12 06:39:22;;;;;;;22.67;12.70;;;0.20;99.90;;;;;;4990521;28;20365;-36
2022/12/12 06:41:48;;;;;;;24.90;14.07;;;0.30;99.90;;;;;;4922517;28;20481;-35
2022/12/12 06:44:14;;;;;;;23.70;13.00;;;0.20;99.90;;;;;;4872050;29;20129;-36
2022/12/12 06:46:40;;;;;;;26.23;13.93;;;0.30;99.90;;;;;;4817295;29;20542;-36
2022/12/12 06:51:42;;;;;;;24.55;13.30;;;0.20;99.90;;;;;;5194634;27;20125;-36
2022/12/12 06:54:13;;;;;;;23.38;13.55;;;0.30;99.90;;;;;;5126654;27;20041;-36
2022/12/12 06:56:39;;;;;;;22.73;13.38;;;0.20;99.90;;;;;;5091801;28;20039;-36
2022/12/12 06:59:05;;;;;;;23.52;13.82;;;0.20;99.90;;;;;;5093869;28;20037;-36
2022/12/12 07:01:31;;;;;;;23.83;13.27;;;0.30;99.90;;;;;;4997242;28;20057;-36
2022/12/12 07:03:57;;;;;;;23.63;12.65;;;0.30;99.90;;;;;;4970562;28;20441;-36
2022/12/12 07:06:23;;;;;;;23.27;13.93;;;0.30;99.90;;;;;;4909874;29;20056;-36
2022/12/12 07:08:50;;;;;;;23.63;13.48;;;0.30;99.90;;;;;;4836400;29;20049;-36
2022/12/12 07:11:21;;;;;;;23.38;14.23;;;0.20;99.90;;;;;;4791733;29;20083;-35
2022/12/12 07:13:48;;;;;;;24.77;13.73;;;0.30;99.90;;;;;;4707062;30;20137;-36
2022/12/12 07:16:25;;;;;;;24.55;13.63;;;0.20;99.90;;;;;;5184260;27;20129;-36
2022/12/12 07:18:51;;;;;;;26.55;14.70;;;0.30;99.90;;;;;;5152882;27;20062;-36
2022/12/12 07:21:18;;;;;;;24.58;14.27;;;0.30;99.90;;;;;;5090967;27;20043;-36
2022/12/12 07:23:45;;;;;;;26.38;14.27;;;0.30;99.90;;;;;;5080781;28;20040;-36
2022/12/12 07:26:14;;;;;;;23.73;13.82;;;0.30;99.90;;;;;;5029037;28;20050;-35
2022/12/12 07:28:40;;;;;;;25.13;14.10;;;0.30;99.90;;;;;;4913151;29;20100;-36
2022/12/12 07:31:09;;;;;;;25.52;15.27;;;0.30;99.90;;;;;;4830898;29;20147;-36
2022/12/12 07:33:35;;;;;;;28.30;15.80;;;0.30;99.90;;;;;;4777417;29;20052;-36
2022/12/12 07:38:37;;;;;;;26.88;15.02;;;0.30;99.90;;;;;;5189376;27;20354;-36
2022/12/12 07:41:06;;;;;;;30.33;15.52;;;0.30;99.90;;;;;;5166831;27;20042;-36
2022/12/12 07:43:34;;;;;;;28.67;16.60;;;0.30;99.90;;;;;;5143249;27;20100;-36
2022/12/12 07:45:59;;;;;;;27.48;16.27;;;0.20;99.90;;;;;;5126844;27;20028;-35
2022/12/12 07:48:27;;;;;;;23.10;14.35;;;0.20;99.90;;;;;;5085829;28;20029;-36
2022/12/12 07:50:53;;;;;;;25.88;15.77;;;0.30;99.90;;;;;;5007688;28;20127;-36
2022/12/12 07:53:19;;;;;;;26.30;15.38;;;0.30;99.90;;;;;;4940317;28;20136;-36
2022/12/12 07:55:45;;;;;;;22.88;13.88;;;0.30;99.90;;;;;;4859352;29;20042;-36
2022/12/12 07:58:11;;;;;;;24.23;14.20;;;0.30;99.90;;;;;;4811658;29;20053;-36
2022/12/12 08:00:37;;;;;;;24.23;13.48;;;0.30;99.90;;;;;;4745766;30;20040;-36
2022/12/12 08:03:14;;;;;;;22.60;13.98;;;0.30;99.90;;;;;;5183963;27;20155;-36
2022/12/12 08:05:41;;;;;;;24.77;14.05;;;0.30;99.90;;;;;;5150081;27;20051;-36
2022/12/12 08:08:07;;;;;;;23.45;13.98;;;0.30;99.90;;;;;;5108414;27;20044;-36
2022/12/12 08:10:33;;;;;;;25.38;13.57;;;0.30;99.90;;;;;;5113255;27;20037;-36
2022/12/12 08:12:58;;;;;;;26.10;14.07;;;0.30;99.90;;;;;;5055932;28;20038;-36
2022/12/12 08:15:24;;;;;;;23.30;13.55;;;0.30;99.90;;;;;;5022178;28;20128;-36
2022/12/12 08:17:50;;;;;;;26.42;14.30;;;0.30;99.90;;;;;;5005158;28;20452;-35
2022/12/12 08:20:16;;;;;;;25.02;13.73;;;0.40;99.90;;;;;;4966790;28;20051;-35
2022/12/12 08:22:41;;;;;;;22.88;13.95;;;0.40;99.90;;;;;;4904374;29;20059;-35
2022/12/12 08:25:07;;;;;;;23.35;14.02;;;0.40;99.90;;;;;;4826538;29;20050;-36
2022/12/12 08:27:45;;;;;;;23.73;13.70;;;0.40;99.90;;;;;;5196899;27;20136;-35
2022/12/12 08:30:11;;;;;;;29.77;16.27;;;0.50;99.90;;;;;;5146973;27;20392;-36
2022/12/12 08:32:37;;;;;;;32.15;17.23;;;0.40;99.90;;;;;;5123385;27;20075;-36
2022/12/12 08:35:03;;;;;;;30.42;17.73;;;0.50;99.90;;;;;;5125278;27;20127;-36
2022/12/12 08:37:29;;;;;;;33.58;19.65;;;0.60;99.90;;;;;;5128630;27;20494;-36
2022/12/12 08:39:55;;;;;;;36.45;20.90;;;0.60;99.90;;;;;;5061983;28;20053;-35
2022/12/12 08:42:20;;;;;;;35.47;19.42;;;0.60;99.90;;;;;;5009207;28;20042;-36
2022/12/12 08:44:48;;;;;;;49.95;23.55;;;0.60;99.90;;;;;;4941615;28;20040;-36
2022/12/12 08:49:41;;;;;;;38.63;20.85;;;0.60;99.90;;;;;;5180440;27;20378;-36
2022/12/12 08:52:08;;;;;;;37.80;20.48;;;0.70;99.90;;;;;;5129084;27;20039;-36
2022/12/12 08:54:35;;;;;;;37.67;20.15;;;0.70;99.90;;;;;;5167092;27;21309;-36
2022/12/12 08:57:01;;;;;;;39.42;20.85;;;0.70;99.90;;;;;;5143322;27;20059;-36
2022/12/12 08:59:27;;;;;;;39.42;19.88;;;0.70;99.90;;;;;;5114402;27;20110;-36
2022/12/12 09:01:53;;;;;;;39.20;20.80;;;0.70;99.90;;;;;;5056768;28;20125;-36
2022/12/12 09:04:19;;;;;;;37.30;20.77;;;0.60;99.90;;;;;;5045862;28;20038;-36
2022/12/12 09:06:44;;;;;;;40.10;22.73;;;0.60;99.90;;;;;;4951944;28;20044;-36
2022/12/12 09:11:48;;;;;;;37.88;22.23;;;0.60;99.90;;;;;;5182591;27;20128;-35
2022/12/12 09:14:13;;;;;;;39.53;20.35;;;0.60;99.90;;;;;;5129804;27;20044;-36
2022/12/12 09:16:39;;;;;;;36.55;21.00;;;0.60;99.90;;;;;;5098773;28;20043;-36
2022/12/12 09:19:05;;;;;;;38.10;20.80;;;0.70;99.90;;;;;;5138964;27;20075;-36
2022/12/12 09:21:31;;;;;;;43.08;22.50;;;0.60;99.90;;;;;;5089724;28;20037;-36
2022/12/12 09:23:57;;;;;;;42.65;21.90;;;0.60;99.90;;;;;;5028284;28;20053;-36
2022/12/12 09:26:23;;;;;;;42.33;22.38;;;0.60;99.90;;;;;;5013110;28;20043;-35
2022/12/12 09:28:49;;;;;;;41.15;21.77;;;0.60;99.90;;;;;;4961061;28;20053;-36
2022/12/12 09:31:14;;;;;;;42.95;21.88;;;0.60;99.90;;;;;;4922119;28;20035;-36
2022/12/12 09:33:48;;;;;;;40.03;21.98;;;0.70;99.90;;;;;;5155756;27;20595;-35
2022/12/12 09:36:14;;;;;;;41.50;22.38;;;0.70;99.90;;;;;;5142137;27;20060;-36
2022/12/12 09:38:40;;;;;;;48.00;21.23;;;0.80;99.90;;;;;;5096753;28;20523;-36
2022/12/12 09:41:14;;;;;;;39.97;21.63;;;0.80;99.90;;;;;;5034180;28;20044;-36
2022/12/12 09:43:51;;;;;;;42.92;21.80;;;0.90;99.90;;;;;;4991954;28;20036;-36
2022/12/12 09:46:32;;;;;;;39.47;21.45;;;0.90;99.90;;;;;;4883117;29;20041;-36
2022/12/12 09:49:12;;;;;;;40.67;21.75;;;1.00;99.90;;;;;;4885517;29;20068;-36
2022/12/12 09:51:41;;;;;;;44.03;21.60;;;1.00;99.90;;;;;;4758194;29;20050;-36
2022/12/12 09:57:17;;;;;;;42.58;22.75;;;1.10;99.90;;;;;;5189284;27;20147;-36
2022/12/12 09:59:49;;;;;;;42.58;21.52;;;1.10;99.90;;;;;;5135208;27;20574;-36
2022/12/12 10:02:36;;;;;;;41.92;22.83;;;1.10;99.90;;;;;;5067428;28;20094;-36
2022/12/12 10:05:16;;;;;;;45.83;24.08;;;1.10;99.90;;;;;;5063949;28;20052;-36
2022/12/12 10:08:01;;;;;;;40.85;21.65;;;1.20;99.90;;;;;;4970362;28;20050;-36
2022/12/12 10:10:32;;;;;;;40.30;22.00;;;1.30;99.90;;;;;;4873103;29;20093;-35
2022/12/12 10:13:00;;;;;;;40.67;22.73;;;1.30;99.90;;;;;;4766410;29;20049;-36
2022/12/12 10:18:45;;;;;;;38.92;21.35;;;1.40;99.90;;;;;;5178602;27;20137;-36
2022/12/12 10:21:21;;;;;;;41.10;20.70;;;1.50;99.90;;;;;;5149932;27;20122;-35
2022/12/12 10:24:06;;;;;;;36.72;21.35;;;1.50;99.90;;;;;;5148688;27;20039;-36
2022/12/12 10:26:32;;;;;;;38.05;21.17;;;1.60;99.90;;;;;;5105736;27;20448;-36
2022/12/12 10:29:10;;;;;;;39.47;21.48;;;1.60;99.90;;;;;;5047849;28;20057;-36
2022/12/12 10:31:51;;;;;;;39.08;20.85;;;1.60;99.90;;;;;;4954127;28;20044;-36
2022/12/12 10:34:50;;;;;;;37.55;20.38;;;1.60;99.90;;;;;;4919965;29;20831;-36
2022/12/12 10:40:33;;;;;;;40.35;22.17;;;1.60;99.90;;;;;;5115619;27;20143;-36
2022/12/12 10:43:09;;;;;;;40.78;21.65;;;1.60;99.90;;;;;;5079422;28;20041;-37
2022/12/12 10:46:00;;;;;;;38.17;21.20;;;1.60;99.90;;;;;;5062521;28;20063;-36
2022/12/12 10:48:27;;;;;;;37.40;20.50;;;1.70;99.90;;;;;;5051412;28;20474;-36
2022/12/12 10:51:03;;;;;;;41.08;22.08;;;1.70;99.90;;;;;;4986251;28;20091;-36
2022/12/12 10:53:31;;;;;;;37.90;22.05;;;1.70;99.90;;;;;;4892679;29;20063;-36
2022/12/12 10:56:08;;;;;;;42.03;24.02;;;1.60;99.90;;;;;;4810996;29;20056;-36
2022/12/12 11:00:36;;;;;;;43.97;22.67;;;1.60;99.90;;;;;;5184702;27;20133;-36
2022/12/12 11:03:28;;;;;;;67.97;35.00;;;1.70;99.90;;;;;;5156186;27;20047;-36
2022/12/12 11:05:55;;;;;;;40.22;22.63;;;1.70;99.90;;;;;;5086014;28;20043;-35
2022/12/12 11:08:25;;;;;;;41.15;22.75;;;1.80;99.90;;;;;;5090967;28;20148;-35
2022/12/12 11:11:20;;;;;;;41.05;22.20;;;1.80;99.90;;;;;;5071732;28;20045;-36
2022/12/12 11:13:55;;;;;;;37.38;22.02;;;1.90;99.90;;;;;;4971489;28;20039;-36
2022/12/12 11:16:38;;;;;;;41.40;24.45;;;1.90;99.90;;;;;;4898392;29;21221;-37
2022/12/12 11:21:41;;;;;;;37.25;20.92;;;1.90;99.90;;;;;;5201984;27;20140;-36
2022/12/12 11:24:13;;;;;;;43.08;22.52;;;1.90;99.90;;;;;;5152501;27;20045;-37
2022/12/12 11:26:44;;;;;;;45.90;23.65;;;2.00;99.90;;;;;;5160350;27;20039;-37
2022/12/12 11:29:45;;;;;;;39.88;20.83;;;2.00;99.90;;;;;;5143757;27;20048;-37
2022/12/12 11:32:14;;;;;;;39.03;21.92;;;2.00;99.90;;;;;;5032586;28;20551;-37
2022/12/12 11:34:44;;;;;;;37.08;21.33;;;2.00;99.90;;;;;;5008456;28;20116;-36
2022/12/12 11:37:16;;;;;;;39.20;22.67;;;1.90;99.90;;;;;;4873395;29;20068;-36
2022/12/12 11:39:54;;;;;;;36.60;20.65;;;1.90;99.90;;;;;;4697573;30;20068;-36
2022/12/12 11:42:33;;;;;;;40.08;26.42;;;1.90;99.90;;;;;;5201987;27;20423;-36
2022/12/12 11:45:09;;;;;;;39.40;22.05;;;2.00;99.90;;;;;;5136780;27;20092;-37
2022/12/12 11:47:41;;;;;;;40.03;21.67;;;2.00;99.90;;;;;;5101499;28;20050;-36
2022/12/12 11:50:18;;;;;;;35.20;21.00;;;2.00;99.90;;;;;;5068844;28;20132;-36
2022/12/12 11:52:44;;;;;;;38.67;22.25;;;2.00;99.90;;;;;;5029565;28;20045;-37
2022/12/12 11:55:26;;;;;;;36.92;20.52;;;2.00;99.90;;;;;;4990506;28;20050;-36
2022/12/12 11:57:52;;;;;;;32.78;19.13;;;2.10;99.90;;;;;;4839718;29;20148;-37
2022/12/12 12:00:41;;;;;;;36.67;21.35;;;2.00;99.90;;;;;;4692644;30;20407;-36
2022/12/12 12:03:43;;;;;;;36.00;20.10;;;2.00;99.90;;;;;;5195541;27;20124;-36
2022/12/12 12:06:17;;;;;;;34.70;20.17;;;2.00;99.90;;;;;;5122401;27;20045;-37
2022/12/12 12:09:30;;;;;;;33.13;19.58;;;2.00;99.90;;;;;;5090598;28;20096;-36
2022/12/12 12:12:19;;;;;;;37.72;20.45;;;2.00;99.90;;;;;;4969074;28;20046;-36
2022/12/12 12:15:17;;;;;;;35.10;20.15;;;2.10;99.90;;;;;;4918754;29;20123;-36
2022/12/12 12:17:58;;;;;;;34.17;20.75;;;2.20;99.90;;;;;;4831808;29;20055;-37
2022/12/12 12:20:48;;;;;;;39.50;21.13;;;2.20;99.90;;;;;;4728699;29;20042;-36
2022/12/12 12:26:00;;;;;;;38.75;22.05;;;2.20;99.90;;;;;;5188090;27;20133;-39
2022/12/12 12:28:39;;;;;;;40.50;22.55;;;2.30;99.90;;;;;;5149320;27;20440;-36
2022/12/12 12:31:17;;;;;;;37.85;21.67;;;2.40;99.90;;;;;;5094937;28;20041;-36
2022/12/12 12:33:55;;;;;;;39.25;22.75;;;2.60;99.90;;;;;;5073907;28;20059;-36
2022/12/12 12:36:26;;;;;;;41.55;22.67;;;2.60;99.90;;;;;;5042275;28;20042;-36
2022/12/12 12:39:01;;;;;;;43.97;23.67;;;2.60;99.90;;;;;;4917752;28;20201;-36
2022/12/12 12:41:48;;;;;;;40.50;22.80;;;2.60;99.90;;;;;;4802852;29;20063;-36
2022/12/12 12:47:07;;;;;;;36.85;20.75;;;2.50;99.90;;;;;;5196678;27;20120;-36
2022/12/12 12:49:40;;;;;;;40.58;22.48;;;2.30;99.90;;;;;;5112765;27;20048;-36
2022/12/12 12:52:21;;;;;;;40.33;22.30;;;2.30;99.90;;;;;;5089775;28;20040;-36
2022/12/12 12:54:59;;;;;;;42.08;22.02;;;2.40;99.90;;;;;;5114799;27;20042;-36
2022/12/12 13:01:54;;;;;;;42.30;22.48;;;2.20;99.90;;;;;;5087244;28;20118;-36
2022/12/12 13:04:24;;;;;;;40.78;23.30;;;2.30;99.90;;;;;;4865065;29;20123;-37
2022/12/12 13:10:05;;;;;;;40.80;24.23;;;2.30;99.90;;;;;;5187026;27;20136;-36
2022/12/12 13:12:38;;;;;;;41.42;23.33;;;2.40;99.90;;;;;;5124316;27;20057;-36
2022/12/12 13:15:30;;;;;;;42.72;24.20;;;2.40;99.90;;;;;;5124457;27;20041;-37
2022/12/12 13:18:07;;;;;;;42.28;22.92;;;2.40;99.90;;;;;;5135500;27;20046;-36
2022/12/12 13:20:53;;;;;;;40.75;23.48;;;2.50;99.90;;;;;;5070719;28;20383;-36
2022/12/12 13:23:49;;;;;;;41.95;22.63;;;2.60;99.90;;;;;;4945437;28;20055;-37
2022/12/12 13:26:32;;;;;;;35.10;21.75;;;2.70;99.90;;;;;;4840449;29;20055;-36
2022/12/12 13:29:29;;;;;;;37.08;22.25;;;2.70;99.90;;;;;;5190640;27;20129;-37
2022/12/12 13:32:35;;;;;;;37.08;21.95;;;2.60;99.90;;;;;;5120122;27;20044;-37
2022/12/12 13:35:08;;;;;;;40.13;22.60;;;2.60;99.90;;;;;;5057732;28;20041;-36
2022/12/12 13:37:42;;;;;;;40.60;21.70;;;2.60;99.90;;;;;;5027732;28;20041;-35
2022/12/12 13:40:23;;;;;;;38.25;21.52;;;2.60;99.90;;;;;;5023918;28;20108;-35
2022/12/12 13:43:00;;;;;;;41.20;21.45;;;2.50;99.90;;;;;;4913442;28;20069;-36
2022/12/12 13:45:37;;;;;;;36.47;21.70;;;2.40;99.90;;;;;;4810932;29;20086;-36
2022/12/12 13:48:27;;;;;;;41.05;21.70;;;2.40;99.90;;;;;;5189492;27;20129;-36
2022/12/12 13:51:27;;;;;;;35.50;21.92;;;2.40;99.90;;;;;;5140955;27;20199;-37
2022/12/12 13:54:12;;;;;;;40.88;21.80;;;2.40;99.90;;;;;;5095807;28;20071;-36
2022/12/12 13:56:42;;;;;;;40.08;22.08;;;2.40;99.90;;;;;;5050110;28;20474;-36
2022/12/12 13:59:26;;;;;;;38.80;23.05;;;2.40;99.90;;;;;;5009188;28;20062;-36
2022/12/12 14:02:20;;;;;;;38.33;21.50;;;2.50;99.90;;;;;;4877824;29;20493;-36
2022/12/12 14:04:46;;;;;;;38.15;21.00;;;2.40;99.90;;;;;;4836509;29;20111;-37
2022/12/12 14:07:12;;;;;;;42.05;22.15;;;2.30;99.90;;;;;;4718476;30;20067;-37
2022/12/12 14:12:36;;;;;;;39.63;21.63;;;2.10;99.90;;;;;;5183429;27;20137;-36
2022/12/12 14:15:05;;;;;;;38.65;20.95;;;2.00;99.90;;;;;;5115263;28;20075;-36
2022/12/12 14:17:34;;;;;;;39.65;22.42;;;1.80;99.90;;;;;;5064751;28;20037;-37
2022/12/12 14:20:01;;;;;;;39.70;21.00;;;1.70;99.90;;;;;;5032481;28;20133;-36